createdAt,value
2018-12-27T00:00:55.795Z,99.99
2018-12-27T00:01:55.772Z,99.99
2018-12-27T00:02:55.793Z,99.99
2018-12-27T00:03:55.755Z,99.99
2018-12-27T00:04:55.743Z,99.99
2018-12-27T00:05:55.728Z,99.99
2018-12-27T00:06:55.727Z,99.99
2018-12-27T00:07:55.718Z,99.99
2018-12-27T00:08:55.694Z,99.93
2018-12-27T00:09:55.684Z,99.68
2018-12-27T00:10:55.672Z,99.72
2018-12-27T00:11:55.668Z,99.68
2018-12-27T00:12:55.669Z,99.68
2018-12-27T00:13:55.646Z,99.37
2018-12-27T00:14:55.625Z,99.88
2018-12-27T00:15:55.618Z,99.82
2018-12-27T00:16:55.607Z,99.62
2018-12-27T00:17:55.610Z,99.78
2018-12-27T00:18:55.578Z,99.62
2018-12-27T00:19:55.570Z,99.93
2018-12-27T00:20:55.557Z,99.62
2018-12-27T00:21:55.546Z,99.41
2018-12-27T00:22:55.556Z,99.52
2018-12-27T00:23:55.534Z,99.72
2018-12-27T00:24:55.524Z,99.72
2018-12-27T00:25:55.516Z,99.52
2018-12-27T00:26:55.489Z,99.52
2018-12-27T00:27:55.500Z,99.62
2018-12-27T00:28:55.497Z,99.82
2018-12-27T00:29:55.456Z,99.52
2018-12-27T00:30:55.459Z,99.62
2018-12-27T00:31:55.430Z,99.62
2018-12-27T00:33:02.919Z,99.41
2018-12-27T00:33:55.432Z,99.31
2018-12-27T00:34:55.404Z,99.52
2018-12-27T00:35:55.388Z,99.41
2018-12-27T00:36:55.394Z,99.10
2018-12-27T00:37:55.378Z,99.31
2018-12-27T00:38:55.376Z,99.21
2018-12-27T00:39:55.343Z,99.10
2018-12-27T00:40:55.334Z,99.41
2018-12-27T00:41:55.325Z,99.41
2018-12-27T00:42:55.307Z,99.21
2018-12-27T00:43:55.335Z,99.10
2018-12-27T00:44:55.287Z,99.31
2018-12-27T00:45:55.280Z,99.62
2018-12-27T00:46:55.265Z,99.82
2018-12-27T00:47:55.262Z,99.52
2018-12-27T00:48:55.264Z,99.62
2018-12-27T00:49:55.235Z,99.72
2018-12-27T00:50:55.249Z,99.41
2018-12-27T00:51:55.214Z,99.41
2018-12-27T00:52:55.198Z,99.93
2018-12-27T00:53:55.207Z,99.93
2018-12-27T00:54:55.176Z,99.72
2018-12-27T00:55:55.166Z,99.52
2018-12-27T00:56:55.155Z,99.93
2018-12-27T00:57:55.141Z,99.31
2018-12-27T00:58:55.150Z,99.72
2018-12-27T00:59:55.126Z,99.82
2018-12-27T01:00:55.116Z,99.41
2018-12-27T01:01:55.099Z,99.52
2018-12-27T01:02:55.087Z,99.99
2018-12-27T01:03:55.113Z,99.52
2018-12-27T01:04:55.063Z,99.52
2018-12-27T01:05:55.053Z,99.72
2018-12-27T01:06:55.040Z,99.72
2018-12-27T01:07:55.032Z,99.41
2018-12-27T01:08:55.018Z,99.99
2018-12-27T01:09:55.028Z,99.82
2018-12-27T01:10:55.001Z,99.82
2018-12-27T01:11:54.983Z,99.72
2018-12-27T01:12:54.970Z,99.00
2018-12-27T01:13:54.962Z,99.82
2018-12-27T01:14:54.968Z,99.52
2018-12-27T01:15:54.942Z,99.62
2018-12-27T01:16:54.937Z,99.82
2018-12-27T01:17:54.918Z,99.72
2018-12-27T01:18:54.905Z,99.82
2018-12-27T01:19:54.920Z,99.93
2018-12-27T01:20:54.882Z,99.82
2018-12-27T01:21:54.880Z,99.62
2018-12-27T01:22:54.862Z,99.72
2018-12-27T01:23:54.852Z,99.93
2018-12-27T01:24:54.858Z,99.21
2018-12-27T01:25:54.828Z,99.98
2018-12-27T01:26:54.814Z,99.72
2018-12-27T01:27:54.806Z,99.72
2018-12-27T01:28:54.793Z,99.82
2018-12-27T01:29:54.805Z,99.21
2018-12-27T01:30:54.776Z,99.72
2018-12-27T01:31:54.760Z,99.41
2018-12-27T01:32:54.750Z,99.21
2018-12-27T01:33:54.746Z,99.41
2018-12-27T01:34:54.750Z,99.41
2018-12-27T01:35:54.714Z,99.82
2018-12-27T01:36:54.702Z,99.62
2018-12-27T01:37:54.695Z,99.62
2018-12-27T01:38:54.683Z,99.98
2018-12-27T01:39:54.702Z,99.62
2018-12-27T01:40:54.658Z,99.72
2018-12-27T01:41:54.642Z,99.82
2018-12-27T01:42:54.633Z,99.82
2018-12-27T01:43:54.626Z,99.62
2018-12-27T01:44:54.629Z,99.00
2018-12-27T01:45:54.604Z,99.82
2018-12-27T01:46:54.590Z,99.62
2018-12-27T01:47:54.580Z,99.10
2018-12-27T01:48:54.578Z,99.31
2018-12-27T01:49:54.583Z,99.41
2018-12-27T01:50:54.553Z,99.41
2018-12-27T01:51:54.535Z,99.31
2018-12-27T01:52:54.526Z,99.72
2018-12-27T01:53:54.511Z,99.93
2018-12-27T01:54:54.500Z,99.93
2018-12-27T01:55:54.544Z,99.52
2018-12-27T01:56:54.487Z,99.62
2018-12-27T01:57:54.469Z,99.72
2018-12-27T01:58:54.460Z,99.62
2018-12-27T01:59:54.450Z,99.10
2018-12-27T02:00:54.446Z,99.41
2018-12-27T02:01:54.431Z,99.41
2018-12-27T02:02:54.433Z,99.82
2018-12-27T02:03:54.404Z,99.31
2018-12-27T02:04:54.388Z,99.31
2018-12-27T02:05:54.396Z,99.00
2018-12-27T02:06:54.368Z,99.62
2018-12-27T02:07:54.361Z,99.93
2018-12-27T02:08:54.342Z,99.62
2018-12-27T02:09:54.331Z,99.82
2018-12-27T02:10:54.345Z,99.31
2018-12-27T02:11:54.313Z,99.41
2018-12-27T02:12:54.305Z,99.10
2018-12-27T02:13:54.294Z,98.90
2018-12-27T02:14:54.276Z,98.79
2018-12-27T02:15:54.280Z,99.00
2018-12-27T02:16:54.259Z,99.31
2018-12-27T02:17:54.245Z,98.90
2018-12-27T02:18:54.232Z,98.90
2018-12-27T02:19:54.217Z,98.69
2018-12-27T02:20:54.249Z,98.79
2018-12-27T02:21:54.198Z,99.00
2018-12-27T02:22:54.187Z,98.69
2018-12-27T02:23:54.179Z,98.90
2018-12-27T02:24:54.175Z,99.10
2018-12-27T02:25:54.174Z,99.00
2018-12-27T02:26:54.143Z,98.90
2018-12-27T02:27:54.163Z,99.00
2018-12-27T02:28:54.118Z,99.25
2018-12-27T02:29:54.113Z,99.00
2018-12-27T02:30:54.114Z,98.90
2018-12-27T02:31:54.091Z,99.00
2018-12-27T02:32:54.082Z,98.90
2018-12-27T02:33:54.062Z,98.07
2018-12-27T02:34:54.046Z,97.71
2018-12-27T02:35:54.063Z,99.41
2018-12-27T02:36:54.044Z,99.21
2018-12-27T02:37:54.016Z,98.38
2018-12-27T02:38:54.007Z,98.18
2018-12-27T02:39:54.000Z,97.86
2018-12-27T02:40:53.985Z,97.97
2018-12-27T02:41:53.990Z,98.18
2018-12-27T02:42:53.963Z,97.86
2018-12-27T02:43:53.949Z,97.55
2018-12-27T02:44:53.934Z,97.25
2018-12-27T02:45:53.922Z,97.86
2018-12-27T02:46:54.030Z,97.45
2018-12-27T02:47:53.921Z,97.14
2018-12-27T02:48:53.888Z,96.52
2018-12-27T02:49:53.884Z,97.55
2018-12-27T02:50:53.869Z,97.25
2018-12-27T02:51:53.883Z,96.73
2018-12-27T02:52:53.869Z,97.14
2018-12-27T02:53:53.854Z,97.34
2018-12-27T02:54:53.824Z,97.34
2018-12-27T02:55:53.814Z,96.94
2018-12-27T02:56:53.840Z,96.83
2018-12-27T02:57:53.788Z,97.34
2018-12-27T02:58:53.785Z,97.14
2018-12-27T02:59:53.775Z,96.83
2018-12-27T03:00:53.770Z,96.73
2018-12-27T03:01:53.769Z,96.31
2018-12-27T03:02:53.741Z,96.62
2018-12-27T03:03:53.729Z,96.73
2018-12-27T03:04:53.710Z,96.77
2018-12-27T03:05:53.702Z,96.47
2018-12-27T03:06:53.713Z,96.31
2018-12-27T03:07:53.680Z,97.14
2018-12-27T03:08:53.666Z,97.34
2018-12-27T03:09:53.657Z,97.25
2018-12-27T03:10:53.644Z,97.14
2018-12-27T03:11:53.650Z,97.39
2018-12-27T03:12:53.640Z,97.14
2018-12-27T03:13:53.625Z,97.25
2018-12-27T03:14:53.596Z,97.34
2018-12-27T03:15:53.595Z,96.62
2018-12-27T03:16:53.604Z,97.25
2018-12-27T03:17:53.567Z,97.14
2018-12-27T03:18:53.553Z,97.55
2018-12-27T03:19:53.544Z,97.39
2018-12-27T03:20:53.545Z,97.71
2018-12-27T03:21:53.549Z,97.08
2018-12-27T03:22:53.512Z,98.11
2018-12-27T03:23:53.501Z,97.60
2018-12-27T03:24:53.488Z,97.19
2018-12-27T03:25:53.478Z,96.67
2018-12-27T03:26:53.464Z,97.60
2018-12-27T03:27:53.481Z,97.19
2018-12-27T03:28:53.454Z,97.08
2018-12-27T03:29:53.430Z,96.47
2018-12-27T03:30:53.444Z,96.67
2018-12-27T03:31:53.432Z,96.77
2018-12-27T03:32:53.773Z,96.42
2018-12-27T03:33:53.386Z,96.26
2018-12-27T03:34:53.388Z,96.83
2018-12-27T03:35:53.363Z,96.47
2018-12-27T03:36:53.367Z,97.04
2018-12-27T03:37:53.388Z,96.94
2018-12-27T03:38:53.333Z,96.83
2018-12-27T03:39:53.320Z,97.04
2018-12-27T03:40:53.304Z,96.31
2018-12-27T03:41:53.300Z,96.62
2018-12-27T03:42:53.304Z,96.83
2018-12-27T03:43:53.278Z,96.42
2018-12-27T03:44:53.261Z,97.25
2018-12-27T03:45:53.247Z,96.11
2018-12-27T03:46:53.240Z,97.04
2018-12-27T03:47:53.257Z,96.98
2018-12-27T03:48:53.220Z,96.42
2018-12-27T03:49:53.214Z,96.42
2018-12-27T03:50:53.190Z,96.94
2018-12-27T03:51:53.185Z,96.88
2018-12-27T03:52:53.198Z,96.47
2018-12-27T03:53:53.164Z,95.74
2018-12-27T03:54:53.167Z,96.15
2018-12-27T03:55:53.134Z,95.74
2018-12-27T03:56:53.132Z,96.47
2018-12-27T03:57:53.145Z,96.36
2018-12-27T03:58:53.110Z,96.67
2018-12-27T03:59:53.097Z,96.05
2018-12-27T04:00:53.096Z,95.95
2018-12-27T04:01:53.069Z,96.36
2018-12-27T04:02:53.092Z,96.15
2018-12-27T04:04:01.021Z,96.47
2018-12-27T04:04:54.037Z,95.95
2018-12-27T04:05:53.026Z,96.05
2018-12-27T04:06:53.027Z,96.05
2018-12-27T04:07:53.024Z,96.26
2018-12-27T04:08:53.011Z,96.56
2018-12-27T04:09:52.979Z,96.36
2018-12-27T04:10:52.974Z,96.36
2018-12-27T04:11:52.963Z,96.36
2018-12-27T04:12:52.946Z,96.26
2018-12-27T04:13:52.962Z,96.05
2018-12-27T04:14:52.929Z,95.84
2018-12-27T04:15:52.914Z,96.05
2018-12-27T04:16:52.899Z,95.84
2018-12-27T04:17:52.898Z,95.95
2018-12-27T04:18:52.899Z,95.84
2018-12-27T04:19:52.888Z,95.53
2018-12-27T04:20:52.853Z,95.64
2018-12-27T04:21:52.864Z,95.28
2018-12-27T04:22:52.835Z,95.74
2018-12-27T04:23:52.838Z,95.22
2018-12-27T04:24:52.811Z,95.32
2018-12-27T04:25:52.800Z,95.22
2018-12-27T04:26:52.791Z,95.32
2018-12-27T04:27:52.783Z,95.53
2018-12-27T04:28:52.787Z,95.02
2018-12-27T04:29:52.771Z,95.32
2018-12-27T04:30:52.832Z,95.43
2018-12-27T04:31:52.733Z,95.53
2018-12-27T04:32:52.722Z,95.39
2018-12-27T04:33:52.739Z,95.12
2018-12-27T04:34:52.709Z,95.12
2018-12-27T04:35:52.690Z,95.32
2018-12-27T04:36:52.674Z,94.92
2018-12-27T04:37:52.668Z,95.53
2018-12-27T04:38:52.673Z,95.64
2018-12-27T04:39:52.643Z,95.84
2018-12-27T04:40:52.645Z,96.15
2018-12-27T04:41:52.621Z,95.95
2018-12-27T04:42:52.619Z,95.95
2018-12-27T04:43:52.617Z,96.15
2018-12-27T04:44:52.586Z,96.05
2018-12-27T04:45:52.588Z,95.53
2018-12-27T04:46:52.572Z,95.70
2018-12-27T04:47:52.551Z,95.59
2018-12-27T04:48:52.592Z,95.18
2018-12-27T04:49:52.529Z,94.97
2018-12-27T04:50:52.517Z,95.39
2018-12-27T04:51:52.517Z,95.28
2018-12-27T04:52:52.500Z,95.74
2018-12-27T04:53:52.501Z,96.26
2018-12-27T04:54:52.470Z,96.15
2018-12-27T04:55:52.457Z,97.29
2018-12-27T04:56:52.453Z,96.47
2018-12-27T04:57:52.445Z,96.15
2018-12-27T04:58:52.499Z,96.47
2018-12-27T04:59:52.417Z,96.36
2018-12-27T05:00:52.406Z,96.36
2018-12-27T05:01:52.392Z,95.84
2018-12-27T05:02:52.391Z,96.15
2018-12-27T05:03:52.402Z,96.09
2018-12-27T05:04:52.356Z,95.84
2018-12-27T05:05:52.349Z,95.48
2018-12-27T05:06:52.344Z,94.85
2018-12-27T05:07:52.323Z,95.27
2018-12-27T05:08:52.331Z,94.23
2018-12-27T05:09:52.321Z,94.75
2018-12-27T05:10:52.291Z,94.54
2018-12-27T05:11:52.284Z,94.13
2018-12-27T05:12:52.279Z,94.34
2018-12-27T05:13:52.260Z,94.23
2018-12-27T05:14:52.265Z,93.93
2018-12-27T05:15:52.239Z,94.23
2018-12-27T05:16:52.224Z,93.62
2018-12-27T05:17:52.215Z,93.88
2018-12-27T05:18:52.199Z,94.03
2018-12-27T05:19:52.211Z,93.30
2018-12-27T05:20:52.186Z,92.74
2018-12-27T05:21:52.167Z,92.99
2018-12-27T05:22:52.155Z,92.68
2018-12-27T05:23:52.146Z,92.99
2018-12-27T05:24:52.148Z,92.64
2018-12-27T05:25:52.122Z,92.58
2018-12-27T05:26:52.109Z,92.85
2018-12-27T05:27:52.099Z,92.48
2018-12-27T05:28:52.083Z,92.33
2018-12-27T05:29:52.093Z,92.95
2018-12-27T05:30:52.066Z,92.79
2018-12-27T05:31:52.064Z,92.13
2018-12-27T05:32:52.044Z,92.54
2018-12-27T05:33:52.033Z,92.85
2018-12-27T05:34:52.052Z,92.89
2018-12-27T05:35:52.012Z,92.85
2018-12-27T05:36:51.997Z,92.85
2018-12-27T05:37:51.992Z,92.13
2018-12-27T05:38:51.976Z,91.96
2018-12-27T05:39:51.976Z,91.82
2018-12-27T05:40:51.948Z,91.65
2018-12-27T05:41:51.941Z,92.02
2018-12-27T05:42:51.938Z,91.50
2018-12-27T05:43:51.922Z,91.55
2018-12-27T05:44:51.924Z,91.65
2018-12-27T05:45:51.896Z,91.86
2018-12-27T05:46:51.900Z,91.75
2018-12-27T05:47:51.875Z,91.75
2018-12-27T05:48:51.868Z,92.07
2018-12-27T05:49:51.923Z,91.75
2018-12-27T05:50:51.837Z,92.17
2018-12-27T05:51:51.830Z,91.65
2018-12-27T05:52:51.818Z,91.86
2018-12-27T05:53:51.818Z,91.61
2018-12-27T05:54:51.793Z,91.86
2018-12-27T05:55:51.813Z,91.75
2018-12-27T05:56:51.774Z,91.55
2018-12-27T05:57:51.769Z,92.48
2018-12-27T05:58:51.751Z,92.48
2018-12-27T05:59:51.744Z,92.79
2018-12-27T06:00:51.746Z,92.99
2018-12-27T06:01:51.715Z,92.99
2018-12-27T06:02:51.698Z,92.89
2018-12-27T06:03:51.701Z,92.17
2018-12-27T06:04:51.682Z,91.55
2018-12-27T06:05:51.691Z,91.03
2018-12-27T06:06:51.660Z,91.65
2018-12-27T06:07:54.262Z,91.24
2018-12-27T06:08:51.642Z,91.03
2018-12-27T06:09:51.627Z,91.24
2018-12-27T06:10:51.634Z,91.28
2018-12-27T06:11:51.599Z,91.03
2018-12-27T06:12:51.642Z,91.03
2018-12-27T06:13:51.579Z,91.24
2018-12-27T06:14:51.583Z,91.13
2018-12-27T06:15:51.581Z,90.93
2018-12-27T06:16:51.553Z,90.83
2018-12-27T06:17:51.533Z,91.07
2018-12-27T06:18:51.531Z,90.77
2018-12-27T06:19:51.515Z,91.24
2018-12-27T06:20:51.525Z,91.03
2018-12-27T06:21:51.624Z,89.69
2018-12-27T06:22:51.493Z,89.52
2018-12-27T06:23:51.463Z,90.00
2018-12-27T06:24:52.228Z,89.62
2018-12-27T06:25:51.465Z,89.73
2018-12-27T06:26:51.433Z,89.11
2018-12-27T06:27:51.429Z,89.32
2018-12-27T06:28:51.423Z,89.52
2018-12-27T06:29:51.399Z,89.83
2018-12-27T06:30:51.414Z,89.52
2018-12-27T06:31:51.382Z,89.73
2018-12-27T06:32:51.367Z,89.42
2018-12-27T06:33:51.358Z,89.22
2018-12-27T06:34:51.343Z,89.42
2018-12-27T06:35:51.347Z,89.62
2018-12-27T06:36:51.322Z,89.62
2018-12-27T06:37:51.318Z,90.39
2018-12-27T06:38:51.298Z,90.08
2018-12-27T06:39:51.302Z,89.98
2018-12-27T06:40:51.315Z,89.67
2018-12-27T06:41:51.267Z,89.56
2018-12-27T06:42:51.275Z,89.77
2018-12-27T06:43:51.239Z,90.08
2018-12-27T06:44:51.241Z,90.08
2018-12-27T06:45:51.221Z,89.98
2018-12-27T06:46:51.230Z,90.39
2018-12-27T06:47:51.197Z,89.87
2018-12-27T06:48:51.191Z,90.39
2018-12-27T06:49:51.178Z,90.39
2018-12-27T06:50:51.171Z,89.77
2018-12-27T06:51:51.177Z,89.15
2018-12-27T06:52:51.139Z,89.15
2018-12-27T06:53:51.131Z,89.29
2018-12-27T06:54:51.120Z,88.84
2018-12-27T06:55:51.110Z,88.88
2018-12-27T06:56:51.113Z,88.98
2018-12-27T06:57:51.084Z,87.95
2018-12-27T06:58:51.080Z,87.74
2018-12-27T06:59:51.071Z,87.43
2018-12-27T07:00:51.053Z,86.81
2018-12-27T07:01:51.057Z,85.47
2018-12-27T07:02:51.025Z,85.57
2018-12-27T07:03:51.020Z,85.19
2018-12-27T07:04:51.081Z,84.16
2018-12-27T07:05:50.995Z,83.75
2018-12-27T07:06:51.011Z,83.64
2018-12-27T07:07:50.981Z,83.54
2018-12-27T07:08:51.123Z,83.64
2018-12-27T07:09:50.948Z,82.81
2018-12-27T07:10:50.939Z,83.23
2018-12-27T07:11:50.948Z,83.02
2018-12-27T07:12:50.919Z,83.06
2018-12-27T07:13:50.916Z,82.95
2018-12-27T07:14:50.893Z,82.60
2018-12-27T07:15:50.883Z,83.12
2018-12-27T07:16:50.899Z,82.95
2018-12-27T07:17:50.868Z,82.19
2018-12-27T07:18:50.855Z,81.47
2018-12-27T07:19:50.849Z,81.51
2018-12-27T07:20:50.824Z,81.57
2018-12-27T07:21:50.819Z,82.40
2018-12-27T07:22:50.871Z,82.23
2018-12-27T07:23:50.835Z,82.86
2018-12-27T07:24:50.826Z,82.75
2018-12-27T07:25:50.772Z,82.95
2018-12-27T07:26:50.761Z,82.92
2018-12-27T07:27:50.769Z,83.26
2018-12-27T07:28:50.744Z,83.37
2018-12-27T07:29:50.723Z,83.47
2018-12-27T07:30:50.729Z,83.78
2018-12-27T07:31:50.703Z,83.99
2018-12-27T07:32:50.712Z,83.89
2018-12-27T07:33:50.681Z,83.85
2018-12-27T07:34:56.422Z,84.47
2018-12-27T07:35:51.659Z,84.51
2018-12-27T07:36:50.643Z,84.72
2018-12-27T07:37:50.658Z,84.61
2018-12-27T07:38:50.623Z,84.61
2018-12-27T07:39:50.615Z,84.92
2018-12-27T07:40:50.608Z,84.41
2018-12-27T07:41:50.613Z,84.61
2018-12-27T07:42:50.608Z,84.51
2018-12-27T07:43:50.575Z,84.51
2018-12-27T07:44:50.572Z,84.41
2018-12-27T07:45:50.553Z,84.61
2018-12-27T07:46:50.539Z,84.51
2018-12-27T07:47:50.546Z,85.03
2018-12-27T07:48:50.511Z,84.61
2018-12-27T07:49:50.499Z,84.72
2018-12-27T07:50:50.490Z,84.41
2018-12-27T07:51:50.486Z,84.61
2018-12-27T07:52:50.485Z,84.51
2018-12-27T07:53:50.466Z,84.47
2018-12-27T07:54:50.445Z,84.58
2018-12-27T07:55:50.436Z,84.68
2018-12-27T07:56:50.425Z,84.58
2018-12-27T07:57:50.429Z,84.61
2018-12-27T07:58:50.413Z,84.78
2018-12-27T07:59:50.391Z,84.47
2018-12-27T08:00:50.377Z,84.72
2018-12-27T08:01:50.385Z,84.58
2018-12-27T08:02:50.373Z,84.37
2018-12-27T08:03:50.351Z,84.61
2018-12-27T08:04:50.336Z,85.24
2018-12-27T08:05:50.329Z,85.71
2018-12-27T08:06:50.312Z,85.50
2018-12-27T08:07:50.367Z,85.71
2018-12-27T08:08:50.286Z,85.71
2018-12-27T08:09:50.324Z,85.50
2018-12-27T08:10:50.278Z,85.50
2018-12-27T08:11:50.255Z,85.50
2018-12-27T08:12:50.246Z,86.44
2018-12-27T08:13:50.261Z,86.23
2018-12-27T08:14:50.224Z,86.44
2018-12-27T08:15:50.224Z,87.16
2018-12-27T08:16:50.220Z,86.47
2018-12-27T08:17:50.181Z,86.58
2018-12-27T08:18:50.197Z,87.78
2018-12-27T08:19:50.173Z,87.47
2018-12-27T08:20:50.153Z,87.06
2018-12-27T08:21:50.149Z,87.47
2018-12-27T08:22:50.131Z,87.16
2018-12-27T08:23:50.135Z,87.62
2018-12-27T08:24:50.104Z,87.27
2018-12-27T08:25:50.095Z,87.47
2018-12-27T08:26:50.091Z,87.16
2018-12-27T08:27:50.080Z,87.37
2018-12-27T08:28:50.083Z,87.37
2018-12-27T08:29:50.059Z,87.57
2018-12-27T08:30:50.051Z,87.37
2018-12-27T08:31:50.031Z,87.57
2018-12-27T08:32:50.021Z,87.57
2018-12-27T08:33:50.033Z,87.57
2018-12-27T08:34:49.991Z,87.27
2018-12-27T08:35:49.985Z,87.88
2018-12-27T08:36:49.978Z,87.88
2018-12-27T08:37:49.967Z,87.78
2018-12-27T08:38:49.980Z,87.78
2018-12-27T08:39:49.947Z,87.57
2018-12-27T08:40:49.929Z,87.99
2018-12-27T08:41:49.919Z,87.78
2018-12-27T08:42:49.907Z,88.40
2018-12-27T08:43:49.929Z,87.78
2018-12-27T08:44:49.897Z,88.51
2018-12-27T08:45:49.873Z,88.86
2018-12-27T08:46:49.861Z,89.34
2018-12-27T08:47:49.861Z,89.13
2018-12-27T08:48:49.871Z,89.13
2018-12-27T08:49:49.829Z,89.58
2018-12-27T08:50:49.813Z,89.34
2018-12-27T08:51:49.804Z,89.86
2018-12-27T08:52:49.797Z,89.34
2018-12-27T08:53:49.790Z,89.34
2018-12-27T08:54:49.811Z,89.75
2018-12-27T08:55:49.767Z,89.65
2018-12-27T08:56:49.753Z,89.65
2018-12-27T08:57:49.745Z,90.06
2018-12-27T08:58:49.727Z,90.16
2018-12-27T08:59:49.825Z,90.52
2018-12-27T09:00:49.701Z,91.30
2018-12-27T09:01:49.693Z,90.89
2018-12-27T09:02:49.679Z,91.09
2018-12-27T09:03:49.670Z,90.89
2018-12-27T09:04:49.694Z,91.30
2018-12-27T09:05:49.654Z,90.93
2018-12-27T09:06:49.644Z,91.24
2018-12-27T09:07:49.627Z,91.72
2018-12-27T09:08:49.616Z,90.89
2018-12-27T09:09:49.618Z,91.30
2018-12-27T09:10:49.607Z,91.45
2018-12-27T09:11:49.585Z,91.03
2018-12-27T09:12:49.573Z,91.14
2018-12-27T09:13:49.566Z,91.72
2018-12-27T09:14:49.572Z,91.97
2018-12-27T09:15:49.539Z,91.76
2018-12-27T09:16:49.532Z,91.82
2018-12-27T09:17:49.513Z,91.82
2018-12-27T09:18:49.509Z,91.51
2018-12-27T09:19:49.522Z,92.18
2018-12-27T09:20:49.479Z,91.76
2018-12-27T09:21:49.464Z,91.76
2018-12-27T09:22:49.455Z,92.49
2018-12-27T09:23:49.454Z,92.28
2018-12-27T09:24:49.462Z,92.69
2018-12-27T09:25:49.422Z,92.96
2018-12-27T09:26:49.426Z,93.10
2018-12-27T09:27:49.406Z,92.80
2018-12-27T09:28:49.388Z,93.10
2018-12-27T09:29:49.406Z,93.31
2018-12-27T09:30:49.361Z,92.69
2018-12-27T09:31:49.350Z,93.16
2018-12-27T09:32:49.343Z,92.90
2018-12-27T09:33:49.333Z,93.10
2018-12-27T09:34:49.351Z,93.10
2018-12-27T09:35:49.314Z,93.62
2018-12-27T09:36:50.412Z,94.20
2018-12-27T09:37:49.290Z,94.35
2018-12-27T09:38:49.274Z,94.35
2018-12-27T09:39:49.286Z,94.10
2018-12-27T09:40:49.253Z,93.83
2018-12-27T09:41:49.237Z,93.89
2018-12-27T09:42:49.237Z,94.20
2018-12-27T09:43:49.220Z,93.79
2018-12-27T09:44:49.240Z,93.62
2018-12-27T09:45:49.198Z,94.14
2018-12-27T09:46:49.193Z,93.93
2018-12-27T09:47:49.179Z,93.93
2018-12-27T09:48:49.160Z,93.89
2018-12-27T09:49:49.146Z,94.20
2018-12-27T09:50:49.172Z,93.89
2018-12-27T09:51:49.125Z,93.89
2018-12-27T09:52:49.133Z,94.10
2018-12-27T09:53:49.102Z,93.48
2018-12-27T09:54:49.127Z,94.20
2018-12-27T09:55:49.335Z,93.68
2018-12-27T09:56:49.069Z,94.04
2018-12-27T09:57:49.067Z,93.89
2018-12-27T09:58:49.048Z,93.93
2018-12-27T09:59:49.034Z,93.79
2018-12-27T10:00:49.051Z,94.10
2018-12-27T10:01:49.015Z,94.20
2018-12-27T10:02:49.005Z,93.79
2018-12-27T10:03:49.005Z,93.79
2018-12-27T10:04:48.979Z,93.68
2018-12-27T10:05:49.021Z,94.10
2018-12-27T10:06:48.959Z,93.89
2018-12-27T10:07:48.950Z,93.89
2018-12-27T10:08:48.942Z,93.89
2018-12-27T10:09:48.940Z,93.89
2018-12-27T10:10:48.927Z,94.14
2018-12-27T10:11:48.905Z,94.20
2018-12-27T10:12:48.892Z,94.72
2018-12-27T10:13:48.883Z,94.41
2018-12-27T10:14:48.877Z,95.24
2018-12-27T10:15:48.885Z,94.41
2018-12-27T10:16:48.917Z,94.41
2018-12-27T10:17:48.835Z,94.51
2018-12-27T10:18:48.836Z,94.82
2018-12-27T10:19:48.818Z,94.51
2018-12-27T10:20:48.807Z,94.62
2018-12-27T10:21:48.811Z,94.41
2018-12-27T10:22:48.781Z,94.93
2018-12-27T10:23:48.775Z,94.78
2018-12-27T10:24:48.754Z,94.51
2018-12-27T10:25:48.749Z,94.62
2018-12-27T10:26:48.753Z,94.82
2018-12-27T10:27:48.721Z,94.72
2018-12-27T10:28:48.715Z,94.72
2018-12-27T10:29:48.697Z,94.51
2018-12-27T10:30:48.689Z,94.31
2018-12-27T10:31:48.699Z,94.51
2018-12-27T10:32:48.663Z,94.62
2018-12-27T10:33:48.655Z,94.41
2018-12-27T10:34:48.646Z,94.82
2018-12-27T10:35:48.636Z,94.82
2018-12-27T10:36:48.665Z,94.51
2018-12-27T10:37:48.619Z,94.37
2018-12-27T10:38:48.597Z,94.06
2018-12-27T10:39:48.584Z,94.26
2018-12-27T10:40:48.575Z,93.85
2018-12-27T10:41:48.603Z,93.85
2018-12-27T10:42:48.560Z,93.79
2018-12-27T10:43:48.538Z,93.85
2018-12-27T10:44:48.525Z,94.41
2018-12-27T10:45:48.514Z,94.16
2018-12-27T10:46:48.530Z,94.68
2018-12-27T10:47:48.519Z,94.62
2018-12-27T10:48:48.489Z,94.82
2018-12-27T10:49:48.479Z,94.68
2018-12-27T10:50:48.457Z,94.68
2018-12-27T10:51:48.471Z,94.57
2018-12-27T10:52:48.442Z,94.68
2018-12-27T10:53:48.433Z,94.16
2018-12-27T10:54:48.422Z,94.20
2018-12-27T10:55:48.400Z,94.20
2018-12-27T10:56:48.415Z,94.16
2018-12-27T10:57:48.387Z,94.57
2018-12-27T10:58:48.373Z,94.57
2018-12-27T10:59:48.367Z,94.57
2018-12-27T11:00:48.348Z,94.06
2018-12-27T11:01:48.373Z,94.26
2018-12-27T11:02:48.329Z,94.16
2018-12-27T11:03:48.316Z,94.78
2018-12-27T11:04:48.303Z,94.16
2018-12-27T11:05:48.973Z,94.68
2018-12-27T11:06:48.307Z,94.43
2018-12-27T11:07:48.282Z,94.47
2018-12-27T11:08:48.261Z,94.47
2018-12-27T11:09:48.261Z,94.26
2018-12-27T11:10:48.240Z,93.49
2018-12-27T11:11:48.249Z,94.16
2018-12-27T11:12:48.219Z,93.85
2018-12-27T11:13:48.208Z,94.43
2018-12-27T11:14:48.189Z,93.85
2018-12-27T11:15:48.183Z,94.26
2018-12-27T11:16:48.172Z,94.37
2018-12-27T11:17:48.179Z,94.22
2018-12-27T11:18:48.144Z,94.26
2018-12-27T11:19:48.135Z,94.22
2018-12-27T11:20:48.128Z,94.01
2018-12-27T11:21:48.111Z,94.53
2018-12-27T11:22:48.145Z,94.57
2018-12-27T11:23:48.090Z,93.70
2018-12-27T11:24:48.075Z,94.12
2018-12-27T11:25:48.595Z,93.70
2018-12-27T11:26:48.063Z,93.70
2018-12-27T11:27:48.072Z,94.12
2018-12-27T11:28:48.049Z,94.12
2018-12-27T11:29:48.025Z,94.01
2018-12-27T11:30:48.019Z,94.01
2018-12-27T11:31:48.005Z,94.01
2018-12-27T11:32:48.014Z,93.97
2018-12-27T11:33:47.978Z,94.22
2018-12-27T11:34:47.969Z,93.80
2018-12-27T11:35:47.956Z,94.01
2018-12-27T11:36:47.948Z,93.80
2018-12-27T11:37:47.952Z,93.80
2018-12-27T11:38:47.922Z,93.91
2018-12-27T11:39:47.917Z,94.01
2018-12-27T11:40:47.901Z,94.01
2018-12-27T11:41:47.890Z,93.60
2018-12-27T11:42:47.886Z,93.91
2018-12-27T11:43:47.869Z,93.80
2018-12-27T11:44:47.856Z,93.70
2018-12-27T11:45:47.851Z,93.87
2018-12-27T11:46:47.827Z,94.12
2018-12-27T11:47:47.841Z,93.70
2018-12-27T11:48:47.813Z,93.70
2018-12-27T11:49:47.802Z,93.80
2018-12-27T11:50:47.793Z,93.80
2018-12-27T11:51:47.795Z,93.87
2018-12-27T11:52:47.793Z,94.01
2018-12-27T11:53:47.750Z,94.12
2018-12-27T11:54:47.739Z,93.80
2018-12-27T11:55:47.728Z,93.87
2018-12-27T11:56:47.727Z,93.66
2018-12-27T11:57:47.703Z,94.07
2018-12-27T11:58:47.714Z,94.12
2018-12-27T11:59:47.687Z,93.80
2018-12-27T12:00:47.681Z,93.70
2018-12-27T12:01:47.695Z,93.66
2018-12-27T12:02:47.695Z,93.76
2018-12-27T12:03:47.660Z,94.01
2018-12-27T12:04:47.701Z,93.45
2018-12-27T12:05:47.615Z,93.45
2018-12-27T12:06:47.621Z,93.66
2018-12-27T12:07:47.593Z,93.87
2018-12-27T12:08:47.602Z,93.76
2018-12-27T12:09:47.579Z,93.97
2018-12-27T12:10:47.567Z,93.66
2018-12-27T12:11:47.555Z,93.76
2018-12-27T12:12:48.374Z,93.87
2018-12-27T12:13:47.624Z,93.45
2018-12-27T12:14:47.513Z,93.55
2018-12-27T12:15:47.511Z,94.07
2018-12-27T12:16:47.506Z,93.97
2018-12-27T12:17:47.484Z,93.70
2018-12-27T12:18:47.497Z,94.18
2018-12-27T12:19:47.466Z,94.43
2018-12-27T12:20:47.457Z,94.63
2018-12-27T12:21:47.433Z,94.90
2018-12-27T12:22:47.443Z,94.79
2018-12-27T12:23:47.430Z,94.73
2018-12-27T12:24:47.413Z,94.90
2018-12-27T12:25:47.387Z,94.90
2018-12-27T12:26:47.381Z,94.63
2018-12-27T12:27:47.371Z,95.56
2018-12-27T12:28:47.386Z,95.46
2018-12-27T12:29:47.347Z,95.42
2018-12-27T12:30:47.407Z,95.46
2018-12-27T12:31:47.320Z,95.15
2018-12-27T12:32:47.381Z,95.46
2018-12-27T12:33:47.338Z,95.25
2018-12-27T12:34:47.291Z,95.56
2018-12-27T12:35:47.840Z,95.77
2018-12-27T12:36:47.272Z,96.39
2018-12-27T12:37:47.257Z,96.29
2018-12-27T12:38:47.247Z,95.98
2018-12-27T12:39:47.259Z,96.59
2018-12-27T12:40:47.223Z,96.24
2018-12-27T12:41:47.214Z,96.70
2018-12-27T12:42:47.217Z,97.01
2018-12-27T12:43:47.193Z,97.22
2018-12-27T12:44:47.199Z,96.59
2018-12-27T12:45:47.169Z,97.22
2018-12-27T12:46:47.157Z,96.80
2018-12-27T12:47:47.152Z,96.91
2018-12-27T12:48:47.134Z,96.29
2018-12-27T12:49:47.158Z,95.83
2018-12-27T12:50:47.107Z,96.39
2018-12-27T12:51:47.108Z,96.45
2018-12-27T12:52:47.102Z,96.19